createdAt,value
2023-02-24T00:02:04.125Z,97.70
2023-02-24T00:04:39.967Z,96.60
2023-02-24T00:07:11.723Z,100.07
2023-02-24T00:09:41.146Z,101.05
2023-02-24T00:12:13.415Z,98.47
2023-02-24T00:14:45.019Z,104.28
2023-02-24T00:17:16.325Z,104.85
2023-02-24T00:19:44.404Z,104.78
2023-02-24T00:22:11.771Z,113.28
2023-02-24T00:24:39.379Z,113.72
2023-02-24T00:27:13.434Z,114.70
2023-02-24T00:29:42.331Z,113.47
2023-02-24T00:32:13.286Z,111.35
2023-02-24T00:34:43.437Z,109.20
2023-02-24T00:37:10.906Z,108.25
2023-02-24T00:39:41.836Z,104.68
2023-02-24T00:42:12.112Z,99.07
2023-02-24T00:44:44.192Z,98.60
2023-02-24T00:47:12.373Z,97.97
2023-02-24T00:49:44.477Z,99.97
2023-02-24T00:52:14.678Z,91.10
2023-02-24T00:54:43.846Z,106.03
2023-02-24T00:57:11.487Z,101.38
2023-02-24T00:59:39.619Z,132.60
2023-02-24T01:02:07.528Z,141.15
2023-02-24T01:04:37.909Z,140.48
2023-02-24T01:07:11.241Z,138.57
2023-02-24T01:09:41.675Z,136.18
2023-02-24T01:12:29.363Z,131.63
2023-02-24T01:14:56.925Z,128.70
2023-02-24T01:17:25.765Z,137.35
2023-02-24T01:19:53.397Z,135.90
2023-02-24T01:22:22.878Z,124.50
2023-02-24T01:24:50.466Z,116.20
2023-02-24T01:27:19.553Z,124.00
2023-02-24T01:29:48.065Z,107.63
2023-02-24T01:32:18.905Z,87.47
2023-02-24T01:34:47.575Z,70.57
2023-02-24T01:37:19.467Z,66.57
2023-02-24T01:39:48.018Z,68.00
2023-02-24T01:42:19.829Z,65.03
2023-02-24T01:44:48.085Z,62.20
2023-02-24T01:47:22.105Z,68.50
2023-02-24T01:49:54.864Z,66.97
2023-02-24T01:52:30.951Z,65.93
2023-02-24T01:55:14.526Z,60.47
2023-02-24T01:57:43.002Z,62.90
2023-02-24T02:00:19.608Z,63.03
2023-02-24T02:02:53.209Z,66.53
2023-02-24T02:05:21.373Z,58.17
2023-02-24T02:07:50.321Z,54.25
2023-02-24T02:10:18.797Z,56.17
2023-02-24T02:12:46.621Z,53.15
2023-02-24T02:15:18.964Z,57.67
2023-02-24T02:18:07.487Z,60.20
2023-02-24T02:20:54.021Z,61.25
2023-02-24T02:23:33.422Z,59.13
2023-02-24T02:26:25.635Z,60.10
2023-02-24T02:29:30.534Z,55.67
2023-02-24T02:32:17.484Z,61.08
2023-02-24T02:35:03.757Z,57.50
2023-02-24T02:37:41.382Z,54.67
2023-02-24T02:40:24.301Z,55.65
2023-02-24T02:43:18.769Z,50.17
2023-02-24T02:46:09.467Z,50.72
2023-02-24T02:48:41.381Z,52.28
2023-02-24T02:51:13.530Z,53.97
2023-02-24T02:54:10.522Z,52.97
2023-02-24T02:56:47.098Z,56.22
2023-02-24T02:59:22.782Z,55.70
2023-02-24T03:01:55.782Z,57.28
2023-02-24T03:04:26.769Z,60.72
2023-02-24T03:07:00.628Z,63.03
2023-02-24T03:09:32.685Z,61.60
2023-02-24T03:12:08.095Z,65.00
2023-02-24T03:14:42.977Z,65.07
2023-02-24T03:17:17.180Z,62.65
2023-02-24T03:19:50.101Z,62.05
2023-02-24T03:22:25.789Z,64.13
2023-02-24T03:24:55.575Z,64.72
2023-02-24T03:27:57.206Z,54.17
2023-02-24T03:30:40.998Z,55.17
2023-02-24T03:33:16.885Z,53.75
2023-02-24T03:35:45.693Z,54.60
2023-02-24T03:38:14.299Z,53.35
2023-02-24T03:40:43.663Z,54.95
2023-02-24T03:43:36.648Z,53.00
2023-02-24T03:46:06.106Z,55.90
2023-02-24T03:48:44.062Z,58.55
2023-02-24T03:51:20.612Z,55.92
2023-02-24T03:54:17.037Z,54.83
2023-02-24T03:57:36.017Z,54.35
2023-02-24T04:00:26.032Z,54.42
2023-02-24T04:03:06.653Z,56.25
2023-02-24T04:05:58.766Z,57.33
2023-02-24T04:08:30.326Z,54.60
2023-02-24T04:11:13.444Z,53.47
2023-02-24T04:13:47.290Z,58.75
2023-02-24T04:16:30.242Z,64.95
2023-02-24T04:19:04.057Z,63.20
2023-02-24T04:21:37.343Z,65.85
2023-02-24T04:24:11.674Z,61.78
2023-02-24T04:26:43.122Z,51.95
2023-02-24T04:29:17.811Z,50.20
2023-02-24T04:31:48.934Z,46.40
2023-02-24T04:34:20.350Z,52.25
2023-02-24T04:36:49.880Z,50.17
2023-02-24T04:39:21.027Z,52.08
2023-02-24T04:41:53.217Z,48.13
2023-02-24T04:44:22.579Z,47.53
2023-02-24T04:46:50.874Z,46.78
2023-02-24T04:49:20.229Z,46.35
2023-02-24T04:51:47.493Z,46.08
2023-02-24T04:54:20.047Z,49.63
2023-02-24T04:56:51.024Z,52.33
2023-02-24T04:59:22.566Z,55.13
2023-02-24T05:01:53.170Z,56.80
2023-02-24T05:04:20.954Z,54.90
2023-02-24T05:06:48.144Z,58.28
2023-02-24T05:09:18.273Z,58.72
2023-02-24T05:11:49.276Z,58.03
2023-02-24T05:14:20.995Z,58.35
2023-02-24T05:16:49.447Z,60.72
2023-02-24T05:19:37.999Z,62.33
2023-02-24T05:22:07.392Z,64.18
2023-02-24T05:24:35.119Z,59.47
2023-02-24T05:27:04.020Z,62.58
2023-02-24T05:29:34.830Z,63.13
2023-02-24T05:32:03.916Z,69.28
2023-02-24T05:34:33.589Z,64.32
2023-02-24T05:37:04.648Z,66.07
2023-02-24T05:39:32.584Z,62.53
2023-02-24T05:42:06.177Z,58.40
2023-02-24T05:44:35.942Z,57.30
2023-02-24T05:47:05.702Z,60.38
2023-02-24T05:49:35.279Z,57.88
2023-02-24T05:52:10.432Z,60.08
2023-02-24T05:54:45.535Z,67.07
2023-02-24T05:57:17.253Z,74.38
2023-02-24T05:59:45.486Z,78.95
2023-02-24T06:02:15.340Z,70.15
2023-02-24T06:04:54.177Z,76.95
2023-02-24T06:07:25.178Z,105.47
2023-02-24T06:09:56.735Z,97.93
2023-02-24T06:12:27.925Z,92.95
2023-02-24T06:14:56.071Z,98.55
2023-02-24T06:17:24.574Z,90.63
2023-02-24T06:19:53.572Z,83.93
2023-02-24T06:22:23.666Z,92.57
2023-02-24T06:24:51.389Z,92.03
2023-02-24T06:27:21.710Z,87.75
2023-02-24T06:29:52.013Z,83.65
2023-02-24T06:32:21.279Z,75.55
2023-02-24T06:34:48.892Z,84.40
2023-02-24T06:37:16.831Z,86.25
2023-02-24T06:39:44.456Z,73.07
2023-02-24T06:42:14.364Z,76.78
2023-02-24T06:44:42.062Z,77.57
2023-02-24T06:47:18.167Z,79.65
2023-02-24T06:49:45.813Z,81.22
2023-02-24T06:52:18.754Z,77.55
2023-02-24T06:54:51.751Z,78.80
2023-02-24T06:57:20.612Z,84.68
2023-02-24T06:59:49.154Z,87.22
2023-02-24T07:02:17.879Z,96.90
2023-02-24T07:04:47.645Z,98.05
2023-02-24T07:07:14.908Z,78.97
2023-02-24T07:09:43.047Z,68.55
2023-02-24T07:12:12.856Z,85.93
2023-02-24T07:14:40.892Z,87.28
2023-02-24T07:17:08.848Z,84.68
2023-02-24T07:19:36.940Z,79.72
2023-02-24T07:22:04.320Z,84.60
2023-02-24T07:24:36.823Z,74.80
2023-02-24T07:27:07.556Z,85.97
2023-02-24T07:29:37.932Z,73.05
2023-02-24T07:32:08.906Z,68.15
2023-02-24T07:34:40.674Z,71.45
2023-02-24T07:37:09.906Z,74.50
2023-02-24T07:39:39.596Z,66.35
2023-02-24T07:42:09.406Z,73.28
2023-02-24T07:44:46.788Z,81.55
2023-02-24T07:47:16.335Z,86.10
2023-02-24T07:49:45.701Z,82.90
2023-02-24T07:52:13.191Z,91.45
2023-02-24T07:54:41.293Z,87.50
2023-02-24T07:57:14.131Z,84.47
2023-02-24T07:59:45.403Z,85.28
2023-02-24T08:02:14.032Z,79.00
2023-02-24T08:04:44.675Z,78.40
2023-02-24T08:07:14.749Z,71.50
2023-02-24T08:09:45.822Z,69.35
2023-02-24T08:12:18.386Z,61.35
2023-02-24T08:14:53.710Z,63.85
2023-02-24T08:17:26.844Z,83.45
2023-02-24T08:20:28.840Z,87.35
2023-02-24T08:22:56.559Z,83.95
2023-02-24T08:25:35.993Z,79.82
2023-02-24T08:28:09.298Z,68.25
2023-02-24T08:30:45.356Z,73.10
2023-02-24T08:33:19.809Z,65.30
2023-02-24T08:35:52.723Z,66.40
2023-02-24T08:39:00.198Z,58.40
2023-02-24T08:41:45.007Z,58.63
2023-02-24T08:44:21.726Z,42.53
2023-02-24T08:46:50.350Z,41.45
2023-02-24T08:49:18.298Z,34.03
2023-02-24T08:51:48.279Z,24.45
2023-02-24T08:54:27.452Z,33.90
2023-02-24T08:56:56.508Z,44.63
2023-02-24T08:59:38.132Z,31.40
2023-02-24T09:02:19.068Z,25.33
2023-02-24T09:04:51.617Z,17.92
2023-02-24T09:07:35.686Z,21.42
2023-02-24T09:10:11.677Z,18.58
2023-02-24T09:12:42.511Z,16.98
2023-02-24T09:15:12.490Z,17.50
2023-02-24T09:17:46.117Z,16.13
2023-02-24T09:20:43.459Z,15.57
2023-02-24T09:23:20.421Z,18.58
2023-02-24T09:25:50.906Z,15.02
2023-02-24T09:28:21.237Z,14.75
2023-02-24T09:30:57.060Z,12.20
2023-02-24T09:33:39.458Z,13.13
2023-02-24T09:36:12.990Z,13.45
2023-02-24T09:39:00.995Z,13.75
2023-02-24T09:41:56.284Z,14.80
2023-02-24T09:44:40.600Z,13.55
2023-02-24T09:47:10.816Z,14.18
2023-02-24T09:49:59.397Z,13.52
2023-02-24T09:52:42.687Z,13.77
2023-02-24T09:55:46.072Z,11.73
2023-02-24T09:58:43.027Z,12.45
2023-02-24T10:01:23.747Z,12.13
2023-02-24T10:04:20.261Z,13.55
2023-02-24T10:06:55.452Z,12.90
2023-02-24T10:09:36.309Z,14.43
2023-02-24T10:12:19.827Z,10.52
2023-02-24T10:15:16.628Z,11.32
2023-02-24T10:20:44.306Z,10.73
2023-02-24T10:23:33.195Z,10.10
2023-02-24T10:26:07.478Z,12.80
2023-02-24T10:28:52.214Z,9.85
2023-02-24T10:31:35.825Z,10.80
2023-02-24T10:34:09.577Z,10.63
2023-02-24T10:36:37.977Z,10.45
2023-02-24T10:39:20.754Z,9.50
2023-02-24T10:41:57.754Z,8.52
2023-02-24T10:44:36.576Z,8.52
2023-02-24T10:47:11.950Z,8.13
2023-02-24T10:49:57.325Z,10.40
2023-02-24T10:52:37.314Z,7.68
2023-02-24T10:55:28.622Z,8.13
2023-02-24T10:58:08.013Z,9.63
2023-02-24T11:01:00.360Z,7.90
2023-02-24T11:03:46.540Z,9.85
2023-02-24T11:06:41.012Z,8.65
2023-02-24T11:09:32.442Z,8.20
2023-02-24T11:12:24.673Z,9.23
2023-02-24T11:15:20.825Z,8.65
2023-02-24T11:17:59.677Z,9.00
2023-02-24T11:20:46.132Z,8.73
2023-02-24T11:23:28.205Z,9.25
2023-02-24T11:26:01.776Z,8.13
2023-02-24T11:28:49.124Z,9.30
2023-02-24T11:31:54.000Z,9.13
2023-02-24T11:34:21.725Z,9.60
2023-02-24T11:37:03.022Z,9.18
2023-02-24T11:39:48.444Z,8.73
2023-02-24T11:42:39.133Z,8.77
2023-02-24T11:45:29.619Z,9.93
2023-02-24T11:48:01.062Z,9.32
2023-02-24T11:50:53.610Z,10.35
2023-02-24T11:53:41.367Z,10.10
2023-02-24T11:56:24.519Z,10.52
2023-02-24T11:59:02.646Z,8.77
2023-02-24T12:01:36.314Z,8.52
2023-02-24T12:04:37.853Z,9.55
2023-02-24T12:07:32.703Z,9.00
2023-02-24T12:10:15.932Z,8.85
2023-02-24T12:12:49.252Z,9.18
2023-02-24T12:15:34.355Z,9.25
2023-02-24T12:18:13.855Z,8.32
2023-02-24T12:21:09.295Z,8.98
2023-02-24T12:23:43.210Z,8.35
2023-02-24T12:26:19.500Z,8.48
2023-02-24T12:28:57.114Z,8.82
2023-02-24T12:31:42.868Z,9.18
2023-02-24T12:34:38.735Z,8.60
2023-02-24T12:37:43.455Z,8.93
2023-02-24T12:40:39.578Z,7.38
2023-02-24T12:43:46.287Z,8.27
2023-02-24T12:49:12.066Z,8.68
2023-02-24T12:52:10.351Z,7.90
2023-02-24T12:54:40.265Z,6.90
2023-02-24T12:57:33.762Z,7.68
2023-02-24T13:00:11.322Z,7.38
2023-02-24T13:03:08.728Z,7.55
2023-02-24T13:06:10.694Z,7.57
2023-02-24T13:09:13.725Z,8.25
2023-02-24T13:11:51.764Z,7.00
2023-02-24T13:14:19.771Z,7.25
2023-02-24T13:16:47.189Z,8.55
2023-02-24T13:19:21.583Z,7.22
2023-02-24T13:22:04.092Z,6.70
2023-02-24T13:24:32.839Z,6.90
2023-02-24T13:27:26.872Z,6.97
2023-02-24T13:29:57.947Z,7.47
2023-02-24T13:32:37.698Z,6.85
2023-02-24T13:35:16.696Z,6.38
2023-02-24T13:37:47.164Z,6.40
2023-02-24T13:40:23.964Z,6.63
2023-02-24T13:42:57.528Z,6.28
2023-02-24T13:45:27.824Z,5.82
2023-02-24T13:48:16.939Z,5.28
2023-02-24T13:51:02.892Z,5.85
2023-02-24T13:53:56.615Z,6.38
2023-02-24T13:56:45.729Z,7.03
2023-02-24T13:59:13.185Z,6.55
2023-02-24T14:01:49.807Z,6.65
2023-02-24T14:04:22.865Z,8.10
2023-02-24T14:06:54.524Z,6.80
2023-02-24T14:09:27.480Z,8.05
2023-02-24T14:12:00.660Z,8.85
2023-02-24T14:14:29.496Z,10.95
2023-02-24T14:16:57.591Z,11.35
2023-02-24T14:19:26.130Z,9.63
2023-02-24T14:21:59.097Z,8.13
2023-02-24T14:24:29.477Z,7.70
2023-02-24T14:26:59.474Z,8.13
2023-02-24T14:29:43.152Z,7.93
2023-02-24T14:32:26.935Z,6.68
2023-02-24T14:34:55.296Z,7.22
2023-02-24T14:37:28.351Z,5.63
2023-02-24T14:39:59.479Z,6.05
2023-02-24T14:42:28.317Z,5.85
2023-02-24T14:44:58.509Z,6.28
2023-02-24T14:47:28.995Z,5.93
2023-02-24T14:50:04.941Z,5.93
2023-02-24T14:52:59.272Z,6.72
2023-02-24T14:55:30.293Z,7.07
2023-02-24T14:57:57.809Z,5.57
2023-02-24T15:00:29.239Z,7.10
2023-02-24T15:03:22.510Z,5.95
2023-02-24T15:05:54.567Z,7.30
2023-02-24T15:08:46.565Z,6.20
2023-02-24T15:11:16.894Z,6.30
2023-02-24T15:14:06.451Z,7.18
2023-02-24T15:16:38.746Z,6.78
2023-02-24T15:19:26.527Z,6.50
2023-02-24T15:21:54.516Z,6.07
2023-02-24T15:24:28.520Z,7.40
2023-02-24T15:27:17.350Z,7.65
2023-02-24T15:29:56.663Z,6.82
2023-02-24T15:32:27.958Z,8.55
2023-02-24T15:34:57.103Z,9.60
2023-02-24T15:37:44.932Z,10.10
2023-02-24T15:40:21.049Z,12.90
2023-02-24T15:42:52.882Z,11.82
2023-02-24T15:45:31.873Z,11.13
2023-02-24T15:48:18.812Z,10.77
2023-02-24T15:50:46.877Z,9.63
2023-02-24T15:53:15.398Z,10.57
2023-02-24T15:55:43.827Z,9.73
2023-02-24T15:58:20.590Z,11.63
2023-02-24T16:00:52.457Z,11.55
2023-02-24T16:03:20.089Z,11.32
2023-02-24T16:05:47.756Z,15.30
2023-02-24T16:08:19.126Z,12.88
2023-02-24T16:10:47.519Z,12.00
2023-02-24T16:13:22.003Z,9.90
2023-02-24T16:15:50.813Z,11.18
2023-02-24T16:18:22.526Z,10.98
2023-02-24T16:20:55.503Z,12.13
2023-02-24T16:23:25.913Z,11.10
2023-02-24T16:25:59.299Z,14.45
2023-02-24T16:28:27.270Z,22.23
2023-02-24T16:30:55.198Z,40.05
2023-02-24T16:33:24.520Z,39.75
2023-02-24T16:35:56.002Z,24.85
2023-02-24T16:38:26.797Z,19.35
2023-02-24T16:40:56.666Z,19.13
2023-02-24T16:43:24.984Z,18.73
2023-02-24T16:45:55.905Z,20.38
2023-02-24T16:48:26.646Z,19.48
2023-02-24T16:50:54.499Z,19.75
2023-02-24T16:53:24.071Z,15.88
2023-02-24T16:55:52.039Z,14.68
2023-02-24T16:58:19.830Z,15.75
2023-02-24T17:00:50.146Z,16.38
2023-02-24T17:03:25.329Z,15.68
2023-02-24T17:05:53.748Z,13.38
2023-02-24T17:08:21.522Z,13.95
2023-02-24T17:10:49.900Z,12.43
2023-02-24T17:13:21.300Z,12.60
2023-02-24T17:15:55.434Z,12.80
2023-02-24T17:18:27.184Z,15.27
2023-02-24T17:20:54.939Z,15.35
2023-02-24T17:23:22.507Z,25.23
2023-02-24T17:25:56.270Z,34.63
2023-02-24T17:28:24.040Z,35.45
2023-02-24T17:30:52.115Z,38.08
2023-02-24T17:33:19.592Z,45.00
2023-02-24T17:35:48.443Z,47.97
2023-02-24T17:38:19.349Z,26.08
2023-02-24T17:40:48.109Z,14.25
2023-02-24T17:43:17.562Z,16.05
2023-02-24T17:45:47.543Z,15.15
2023-02-24T17:48:16.348Z,13.18
2023-02-24T17:50:45.745Z,16.65
2023-02-24T17:53:13.093Z,21.83
2023-02-24T17:55:55.808Z,22.13
2023-02-24T17:58:31.588Z,19.23
2023-02-24T18:01:02.356Z,18.33
2023-02-24T18:03:31.290Z,18.42
2023-02-24T18:06:10.557Z,18.75
2023-02-24T18:08:39.514Z,14.88
2023-02-24T18:11:10.112Z,15.10
2023-02-24T18:13:37.571Z,15.05
2023-02-24T18:16:13.637Z,13.63
2023-02-24T18:18:41.299Z,14.35
2023-02-24T18:21:09.032Z,18.65
2023-02-24T18:23:36.864Z,15.38
2023-02-24T18:26:06.249Z,16.23
2023-02-24T18:28:34.358Z,17.38
2023-02-24T18:31:10.766Z,16.58
2023-02-24T18:33:38.542Z,16.80
2023-02-24T18:36:07.205Z,20.77
2023-02-24T18:38:34.409Z,19.42
2023-02-24T18:41:05.328Z,20.02
2023-02-24T18:43:34.028Z,19.30
2023-02-24T18:46:07.159Z,25.80
2023-02-24T18:48:35.369Z,32.42
2023-02-24T18:51:03.111Z,25.15
2023-02-24T18:53:37.008Z,15.75
2023-02-24T18:56:10.721Z,15.25
2023-02-24T18:58:39.618Z,16.10
2023-02-24T19:01:22.650Z,18.10
2023-02-24T19:03:51.379Z,15.90
2023-02-24T19:06:21.070Z,17.40
2023-02-24T19:08:51.109Z,17.08
2023-02-24T19:11:20.788Z,17.17
2023-02-24T19:13:48.151Z,57.63
2023-02-24T19:16:16.902Z,27.27
2023-02-24T19:18:44.983Z,17.77
2023-02-24T19:21:12.812Z,19.45
2023-02-24T19:23:40.174Z,16.05
2023-02-24T19:26:20.208Z,18.20
2023-02-24T19:28:47.971Z,17.00
2023-02-24T19:31:25.844Z,18.95
2023-02-24T19:33:54.658Z,20.73
2023-02-24T19:36:23.707Z,19.50
2023-02-24T19:38:53.866Z,22.45
2023-02-24T19:41:21.707Z,22.33
2023-02-24T19:43:49.130Z,20.08
2023-02-24T19:46:17.619Z,24.80
2023-02-24T19:48:46.182Z,22.40
2023-02-24T19:51:20.330Z,20.50
2023-02-24T19:53:48.465Z,19.75
2023-02-24T19:56:16.083Z,21.67
2023-02-24T19:58:43.481Z,21.95
2023-02-24T20:01:13.664Z,23.60
2023-02-24T20:03:42.960Z,30.27
2023-02-24T20:06:30.417Z,34.97
2023-02-24T20:09:00.296Z,27.27
2023-02-24T20:11:30.031Z,22.27
2023-02-24T20:13:57.476Z,22.33
2023-02-24T20:16:26.354Z,26.60
2023-02-24T20:18:57.073Z,24.60
2023-02-24T20:21:24.993Z,25.15
2023-02-24T20:23:52.353Z,36.83
2023-02-24T20:26:21.010Z,36.67
2023-02-24T20:28:48.747Z,122.55
2023-02-24T20:31:21.637Z,143.05
2023-02-24T20:33:50.555Z,107.10
2023-02-24T20:36:26.995Z,151.70
2023-02-24T20:38:55.319Z,151.70
2023-02-24T20:41:24.227Z,178.88
2023-02-24T20:43:51.544Z,148.35
2023-02-24T20:46:25.387Z,91.38
2023-02-24T20:48:57.944Z,82.32
2023-02-24T20:51:27.282Z,70.18
2023-02-24T20:53:57.967Z,67.18
2023-02-24T20:56:34.284Z,58.50
2023-02-24T20:59:12.342Z,78.47
2023-02-24T21:01:40.481Z,75.60
2023-02-24T21:04:08.984Z,76.03
2023-02-24T21:06:37.597Z,76.47
2023-02-24T21:09:05.652Z,68.20
2023-02-24T21:11:34.029Z,58.92
2023-02-24T21:14:01.490Z,62.33
2023-02-24T21:16:29.413Z,65.22
2023-02-24T21:18:59.987Z,70.07
2023-02-24T21:21:29.426Z,75.78
2023-02-24T21:23:56.985Z,80.07
2023-02-24T21:26:27.244Z,74.28
2023-02-24T21:28:57.652Z,64.55
2023-02-24T21:31:26.867Z,81.55
2023-02-24T21:33:55.092Z,61.60
2023-02-24T21:36:27.909Z,59.50
2023-02-24T21:38:55.791Z,53.45
2023-02-24T21:41:24.796Z,57.75
2023-02-24T21:43:57.385Z,52.30
2023-02-24T21:46:28.664Z,58.80
2023-02-24T21:48:58.403Z,54.75
2023-02-24T21:51:28.333Z,47.90
2023-02-24T21:53:57.232Z,52.90
2023-02-24T21:56:28.220Z,60.78
2023-02-24T21:59:01.442Z,60.28
2023-02-24T22:01:31.835Z,60.25
2023-02-24T22:04:02.025Z,41.25
2023-02-24T22:06:32.141Z,45.10
2023-02-24T22:09:01.187Z,51.03
2023-02-24T22:11:38.038Z,48.75
2023-02-24T22:14:16.366Z,47.55
2023-02-24T22:16:44.662Z,42.35
2023-02-24T22:19:12.315Z,40.05
2023-02-24T22:21:42.687Z,35.58
2023-02-24T22:24:13.751Z,36.25
2023-02-24T22:26:41.643Z,40.47
2023-02-24T22:29:09.609Z,41.78
2023-02-24T22:31:38.540Z,45.65
2023-02-24T22:34:06.426Z,58.85
2023-02-24T22:36:36.992Z,67.28
2023-02-24T22:39:06.532Z,77.95
2023-02-24T22:41:35.459Z,79.75
2023-02-24T22:44:05.097Z,85.70
2023-02-24T22:46:35.744Z,83.50
2023-02-24T22:49:04.068Z,61.42
2023-02-24T22:51:31.986Z,56.53
2023-02-24T22:53:59.486Z,59.40
2023-02-24T22:56:29.198Z,59.38
2023-02-24T22:58:58.169Z,50.60
2023-02-24T23:01:31.278Z,46.88
2023-02-24T23:04:03.174Z,67.28
2023-02-24T23:06:31.476Z,68.25
2023-02-24T23:09:00.658Z,66.20
2023-02-24T23:11:41.070Z,64.70
2023-02-24T23:14:13.772Z,59.20
2023-02-24T23:16:44.640Z,60.70
2023-02-24T23:19:16.966Z,57.30
2023-02-24T23:21:47.949Z,47.00
2023-02-24T23:24:16.093Z,54.92
2023-02-24T23:26:54.655Z,61.20
2023-02-24T23:29:23.728Z,61.70
2023-02-24T23:31:52.693Z,37.38
2023-02-24T23:34:20.200Z,13.93
2023-02-24T23:36:48.302Z,10.07
2023-02-24T23:39:18.231Z,11.80
2023-02-24T23:41:45.990Z,16.20
2023-02-24T23:44:13.082Z,10.25
2023-02-24T23:46:42.049Z,10.27
2023-02-24T23:49:09.985Z,12.00
2023-02-24T23:51:48.100Z,10.05
2023-02-24T23:54:18.418Z,11.82
2023-02-24T23:56:46.741Z,8.35
2023-02-24T23:59:14.533Z,8.68
